Time;durP1;ratioP1;P1;durP2;ratioP2;P2;SDS_P1;SDS_P2;PMS_P1;PMS_P2;Temp;Humidity;BMP_temperature;BMP_pressure;BME280_temperature;BME280_humidity;BME280_pressure;Samples;Min_cycle;Max_cycle;Signal;HPM_P1;HPM_P2
2022/03/20 00:01:00;;;;;;;134.23;49.75;;;;;;;0.36;59.71;102691.41;5074658;28;20045;-79
2022/03/20 00:03:28;;;;;;;122.68;47.13;;;;;;;0.29;60.01;102686.75;5075723;28;20040;-79
2022/03/20 00:05:55;;;;;;;124.78;44.83;;;;;;;0.35;60.58;102678.97;5074953;28;20071;-77
2022/03/20 00:08:23;;;;;;;121.82;44.60;;;;;;;0.21;60.46;102688.28;5074742;28;20119;-78
2022/03/20 00:10:52;;;;;;;113.75;43.55;;;;;;;0.07;61.24;102693.16;5074856;28;20051;-77
2022/03/20 00:13:22;;;;;;;98.78;39.85;;;;;;;-0.01;60.43;102691.16;5074720;28;20044;-78
2022/03/20 00:15:52;;;;;;;103.72;41.40;;;;;;;0.09;61.82;102688.78;5074273;28;20048;-78
2022/03/20 00:18:23;;;;;;;90.70;35.42;;;;;;;0.04;63.78;102696.63;5074438;28;20078;-77
2022/03/20 00:20:52;;;;;;;78.97;31.23;;;;;;;0.09;65.33;102691.44;5075391;28;20495;-78
2022/03/20 00:23:22;;;;;;;75.93;29.70;;;;;;;0.10;65.88;102694.16;5074467;28;20048;-78
2022/03/20 00:25:50;;;;;;;78.85;33.63;;;;;;;0.01;66.91;102690.28;5074826;28;20045;-77
2022/03/20 00:28:19;;;;;;;77.40;31.27;;;;;;;-0.05;67.72;102686.59;5074507;28;20470;-78
2022/03/20 00:30:48;;;;;;;64.80;28.08;;;;;;;0.03;67.85;102689.50;5074083;28;20071;-78
2022/03/20 00:33:16;;;;;;;52.63;25.08;;;;;;;-0.11;68.38;102693.44;5074062;28;20036;-78
2022/03/20 00:35:44;;;;;;;48.33;23.15;;;;;;;-0.11;68.57;102691.69;5074337;28;20147;-77
2022/03/20 00:38:12;;;;;;;48.40;23.23;;;;;;;-0.22;69.78;102690.41;5074290;28;20075;-77
2022/03/20 00:40:40;;;;;;;47.70;23.10;;;;;;;-0.10;69.99;102690.84;5074399;28;20476;-78
2022/03/20 00:43:08;;;;;;;46.58;23.15;;;;;;;-0.08;70.22;102688.22;5074438;28;20132;-77
2022/03/20 00:45:36;;;;;;;45.45;22.50;;;;;;;-0.20;70.16;102691.41;5073864;28;20146;-77
2022/03/20 00:48:07;;;;;;;49.35;22.48;;;;;;;-0.23;70.63;102692.19;5074017;28;20051;-77
2022/03/20 00:50:35;;;;;;;47.97;21.48;;;;;;;-0.23;69.82;102688.59;5075234;28;20376;-78
2022/03/20 00:53:03;;;;;;;43.80;22.17;;;;;;;-0.36;70.42;102689.97;5074212;28;20044;-77
2022/03/20 00:55:31;;;;;;;45.85;22.27;;;;;;;-0.38;70.50;102692.56;5073910;28;20101;-78
2022/03/20 00:57:58;;;;;;;51.42;23.35;;;;;;;-0.34;70.36;102697.13;5073880;28;20076;-78
2022/03/20 01:00:26;;;;;;;55.08;23.30;;;;;;;-0.34;70.72;102697.13;5072915;28;20058;-77
2022/03/20 01:02:54;;;;;;;50.78;23.30;;;;;;;-0.31;69.92;102694.56;5073725;28;20045;-79
2022/03/20 01:05:23;;;;;;;48.92;21.92;;;;;;;-0.26;69.97;102689.44;5073834;28;20495;-78
2022/03/20 01:07:51;;;;;;;51.03;23.40;;;;;;;-0.33;71.12;102698.94;5073612;28;20491;-77
2022/03/20 01:10:18;;;;;;;47.10;22.40;;;;;;;-0.38;71.57;102700.53;5073667;28;20101;-77
2022/03/20 01:12:46;;;;;;;49.40;22.55;;;;;;;-0.33;71.32;102704.25;5073790;28;20123;-78
2022/03/20 01:15:15;;;;;;;50.20;23.42;;;;;;;-0.31;71.51;102699.88;5073361;28;20123;-77
2022/03/20 01:17:43;;;;;;;44.97;22.58;;;;;;;-0.27;70.86;102699.97;5071847;28;20066;-77
2022/03/20 01:20:12;;;;;;;54.60;23.83;;;;;;;-0.31;70.61;102699.00;5073547;28;20068;-77
2022/03/20 01:22:41;;;;;;;51.30;24.45;;;;;;;-0.45;70.63;102691.44;5073458;28;20123;-78
2022/03/20 01:25:09;;;;;;;46.75;22.17;;;;;;;-0.45;70.76;102702.06;5072823;28;20407;-77
2022/03/20 01:27:37;;;;;;;49.90;23.02;;;;;;;-0.41;71.61;102691.53;5073390;28;20145;-78
2022/03/20 01:30:06;;;;;;;45.97;22.05;;;;;;;-0.48;71.71;102690.44;5072969;28;20078;-78
2022/03/20 01:32:34;;;;;;;51.38;22.48;;;;;;;-0.44;71.38;102695.00;5073276;28;20044;-77
2022/03/20 01:35:01;;;;;;;47.90;20.92;;;;;;;-0.50;70.87;102686.81;5073337;28;20472;-77
2022/03/20 01:37:29;;;;;;;54.88;25.90;;;;;;;-0.43;70.63;102686.19;5073318;28;20552;-77
2022/03/20 01:39:58;;;;;;;63.80;27.83;;;;;;;-0.38;69.89;102689.00;5072569;28;20040;-77
2022/03/20 01:42:26;;;;;;;64.63;28.52;;;;;;;-0.37;69.12;102685.50;5072928;28;20098;-78
2022/03/20 01:44:54;;;;;;;59.08;27.45;;;;;;;-0.46;69.16;102686.97;5072358;28;20048;-78
2022/03/20 01:47:22;;;;;;;66.90;29.25;;;;;;;-0.37;69.14;102686.38;5073189;28;20040;-77
2022/03/20 01:49:50;;;;;;;77.28;31.42;;;;;;;-0.38;68.61;102681.94;5073253;28;20064;-77
2022/03/20 01:52:24;;;;;;;80.97;33.42;;;;;;;-0.39;68.47;102681.91;5055483;28;20045;-78
2022/03/20 01:54:53;;;;;;;79.25;31.17;;;;;;;-0.32;68.42;102681.25;5073663;28;20123;-78
2022/03/20 01:57:23;;;;;;;72.07;29.30;;;;;;;-0.40;68.49;102680.97;5072706;28;20055;-78
2022/03/20 01:59:52;;;;;;;72.28;30.25;;;;;;;-0.45;68.42;102683.47;5074729;28;20135;-78
2022/03/20 02:02:20;;;;;;;67.10;30.13;;;;;;;-0.41;68.63;102681.81;5073030;28;20048;-78
2022/03/20 02:04:48;;;;;;;62.58;28.83;;;;;;;-0.53;69.39;102682.28;5072946;28;20119;-78
2022/03/20 02:07:15;;;;;;;72.85;31.05;;;;;;;-0.48;69.67;102679.81;5073108;28;20119;-78
2022/03/20 02:09:43;;;;;;;80.07;33.50;;;;;;;-0.51;69.58;102687.69;5073178;28;20041;-78
2022/03/20 02:12:12;;;;;;;84.93;36.25;;;;;;;-0.68;69.15;102695.03;5072877;28;20044;-79
2022/03/20 02:14:41;;;;;;;92.57;35.70;;;;;;;-0.76;69.79;102689.44;5072866;28;20045;-77
2022/03/20 02:17:11;;;;;;;78.43;34.47;;;;;;;-0.69;68.47;102701.19;5072349;28;20068;-78
2022/03/20 02:19:39;;;;;;;88.38;36.28;;;;;;;-0.67;67.57;102694.19;5072834;28;20040;-78
2022/03/20 02:22:09;;;;;;;86.35;36.65;;;;;;;-0.68;67.99;102690.63;5072841;28;20068;-78
2022/03/20 02:24:40;;;;;;;84.75;34.78;;;;;;;-0.61;67.68;102695.31;5072780;28;20068;-77
2022/03/20 02:27:11;;;;;;;76.15;33.10;;;;;;;-0.53;66.74;102692.91;5074063;28;20064;-79
2022/03/20 02:29:40;;;;;;;64.60;29.60;;;;;;;-0.44;66.34;102695.00;5072713;28;20059;-78
2022/03/20 02:32:09;;;;;;;80.63;33.40;;;;;;;-0.41;65.22;102697.75;5072656;28;20055;-78
2022/03/20 02:34:37;;;;;;;76.13;32.72;;;;;;;-0.46;64.83;102696.69;5072721;28;20484;-78
2022/03/20 02:37:06;;;;;;;66.30;31.05;;;;;;;-0.50;64.52;102690.38;5072595;28;20047;-78
2022/03/20 02:39:35;;;;;;;72.32;32.17;;;;;;;-0.48;65.66;102679.81;5072679;28;20044;-79
2022/03/20 02:42:05;;;;;;;72.57;32.80;;;;;;;-0.52;65.25;102684.09;5072323;28;20099;-78
2022/03/20 02:44:53;;;;;;;58.22;26.38;;;;;;;-0.60;64.62;102680.28;5072872;28;20087;-78
2022/03/20 02:47:23;;;;;;;63.63;27.00;;;;;;;-0.50;63.67;102678.88;5073553;28;20076;-78
2022/03/20 02:49:56;;;;;;;55.90;24.77;;;;;;;-0.52;64.26;102680.56;5072506;28;20127;-77
2022/03/20 02:52:26;;;;;;;54.47;23.98;;;;;;;-0.47;63.96;102687.81;5072703;28;20127;-78
2022/03/20 02:54:55;;;;;;;49.58;23.45;;;;;;;-0.63;64.27;102691.69;5073431;28;20094;-78
2022/03/20 02:57:23;;;;;;;48.90;23.10;;;;;;;-0.74;65.18;102693.06;5076053;28;20075;-78
2022/03/20 02:59:51;;;;;;;50.50;23.33;;;;;;;-0.85;64.97;102691.78;5076126;28;20399;-78
2022/03/20 03:02:18;;;;;;;48.42;22.50;;;;;;;-0.83;64.28;102690.06;5076267;28;20487;-78
2022/03/20 03:04:46;;;;;;;48.08;23.23;;;;;;;-0.91;64.08;102682.75;5076040;28;20047;-78
2022/03/20 03:07:14;;;;;;;45.03;21.67;;;;;;;-0.96;64.53;102688.72;5075979;28;20044;-78
2022/03/20 03:12:28;;;;;;;43.67;19.15;;;;;;;-0.93;64.80;102688.84;5077743;28;20044;-77
2022/03/20 03:17:41;;;;;;;40.03;19.73;;;;;;;-0.94;64.21;102694.97;5075631;28;20105;-78
2022/03/20 03:20:09;;;;;;;42.60;20.25;;;;;;;-1.04;64.59;102691.06;5075655;28;20083;-78
2022/03/20 03:22:37;;;;;;;39.30;18.85;;;;;;;-1.03;63.65;102682.28;5075712;28;20082;-78
2022/03/20 03:25:06;;;;;;;38.95;19.17;;;;;;;-0.93;62.60;102684.44;5075376;28;20405;-77
2022/03/20 03:27:35;;;;;;;46.92;20.45;;;;;;;-0.89;62.71;102686.34;5075559;28;20487;-79
2022/03/20 03:30:04;;;;;;;46.05;20.00;;;;;;;-1.03;64.07;102700.84;5075715;28;20064;-79
2022/03/20 03:32:32;;;;;;;39.30;18.88;;;;;;;-1.14;63.71;102695.16;5075407;28;20041;-78
2022/03/20 03:37:44;;;;;;;44.13;18.73;;;;;;;-1.20;70.47;102697.59;5075372;28;20059;-77
2022/03/20 03:40:13;;;;;;;37.13;18.08;;;;;;;-1.22;71.51;102700.16;5075111;28;20064;-78
2022/03/20 03:42:42;;;;;;;37.03;18.65;;;;;;;-1.32;71.57;102701.56;5075510;28;20539;-79
2022/03/20 03:45:10;;;;;;;39.53;19.25;;;;;;;-1.35;71.62;102705.84;5075268;28;20051;-77
2022/03/20 03:47:38;;;;;;;43.83;19.02;;;;;;;-1.33;71.60;102704.16;5075199;28;20127;-77
2022/03/20 03:50:06;;;;;;;42.75;20.25;;;;;;;-1.43;71.92;102708.19;5075187;28;20047;-77
2022/03/20 03:52:34;;;;;;;42.15;19.67;;;;;;;-1.41;72.16;102708.28;5075313;28;20044;-78
2022/03/20 03:55:02;;;;;;;39.25;19.85;;;;;;;-1.39;72.41;102704.81;5074885;28;20036;-77
2022/03/20 03:57:30;;;;;;;42.97;20.17;;;;;;;-1.46;72.99;102706.31;5075008;28;20044;-77
2022/03/20 03:59:59;;;;;;;45.10;20.88;;;;;;;-1.43;72.63;102710.84;5074904;28;20048;-77
2022/03/20 04:02:27;;;;;;;44.72;19.60;;;;;;;-1.50;72.73;102711.47;5074805;28;20060;-79
2022/03/20 04:04:55;;;;;;;46.10;20.23;;;;;;;-1.51;72.94;102709.66;5074866;28;20075;-78
2022/03/20 04:07:22;;;;;;;45.15;21.20;;;;;;;-1.54;73.43;102709.53;5073781;28;20190;-77
2022/03/20 04:09:50;;;;;;;41.47;20.33;;;;;;;-1.48;72.90;102708.00;5074651;28;20064;-77
2022/03/20 04:12:18;;;;;;;47.25;22.75;;;;;;;-1.27;71.79;102706.13;5074809;28;20090;-78
2022/03/20 04:14:46;;;;;;;53.60;25.65;;;;;;;-1.40;71.33;102710.97;5074835;28;20392;-78
2022/03/20 04:17:15;;;;;;;52.33;25.15;;;;;;;-1.33;71.55;102705.06;5074155;28;20572;-77
2022/03/20 04:19:43;;;;;;;56.28;25.60;;;;;;;-1.31;71.13;102705.13;5074499;28;20507;-77
2022/03/20 04:22:11;;;;;;;53.67;23.30;;;;;;;-1.32;71.09;102703.31;5074330;28;20095;-78
2022/03/20 04:24:39;;;;;;;54.53;24.27;;;;;;;-1.29;71.20;102711.38;5074429;28;20051;-79
2022/03/20 04:27:11;;;;;;;56.67;24.67;;;;;;;-1.42;71.06;102712.66;5056472;28;20192;-77
2022/03/20 04:29:39;;;;;;;48.58;23.30;;;;;;;-1.41;70.72;102716.22;5074908;28;20368;-77
2022/03/20 04:32:08;;;;;;;58.95;26.10;;;;;;;-1.50;70.79;102711.47;5074350;28;20069;-79
2022/03/20 04:34:37;;;;;;;56.35;25.45;;;;;;;-1.24;70.22;102704.50;5074359;28;20094;-77
2022/03/20 04:37:06;;;;;;;50.15;22.63;;;;;;;-1.18;68.74;102706.50;5073819;28;20047;-77
2022/03/20 04:39:33;;;;;;;45.55;21.67;;;;;;;-1.23;68.95;102708.97;5074134;28;20052;-77
2022/03/20 04:42:01;;;;;;;49.08;22.60;;;;;;;-1.34;69.13;102700.59;5074148;28;20442;-79
2022/03/20 04:44:29;;;;;;;42.10;21.20;;;;;;;-1.39;69.24;102709.22;5073944;28;20048;-78
2022/03/20 04:46:57;;;;;;;43.80;22.15;;;;;;;-1.54;69.59;102709.53;5073932;28;20068;-78
2022/03/20 05:00:25;;;;;;;68.05;28.65;;;;;;;-1.31;68.13;102719.28;5073085;28;20509;-78
2022/03/20 05:02:53;;;;;;;60.17;26.88;;;;;;;-1.44;68.83;102719.66;5074054;28;20377;-77
2022/03/20 05:05:21;;;;;;;60.33;27.25;;;;;;;-1.55;68.86;102729.81;5073652;28;20123;-77
2022/03/20 05:07:50;;;;;;;56.05;25.95;;;;;;;-1.58;69.61;102720.84;5073300;28;20123;-77
2022/03/20 05:13:20;;;;;;;48.78;21.45;;;;;;;-1.58;68.53;102729.69;5070636;28;20048;-76
2022/03/20 05:15:48;;;;;;;45.58;21.20;;;;;;;-1.62;68.42;102731.34;5056289;28;20514;-78
2022/03/20 05:18:16;;;;;;;46.03;23.00;;;;;;;-1.42;68.87;102733.88;5072255;28;20453;-78
2022/03/20 05:20:44;;;;;;;54.42;26.00;;;;;;;-1.29;68.56;102737.00;5073081;28;20055;-77
2022/03/20 05:23:13;;;;;;;56.63;27.60;;;;;;;-1.24;68.25;102739.00;5073303;28;20055;-77
2022/03/20 05:25:41;;;;;;;56.15;26.77;;;;;;;-1.19;68.69;102733.88;5073282;28;20127;-77
2022/03/20 05:28:08;;;;;;;57.60;26.95;;;;;;;-1.14;68.59;102744.66;5073224;28;20500;-77
2022/03/20 05:30:36;;;;;;;59.03;27.05;;;;;;;-1.11;68.53;102745.69;5073301;28;20529;-77
2022/03/20 05:33:04;;;;;;;60.20;28.05;;;;;;;-1.15;69.11;102746.41;5073354;28;20050;-77
2022/03/20 05:35:31;;;;;;;53.22;27.23;;;;;;;-1.00;69.37;102751.41;5072967;28;20041;-78
2022/03/20 05:38:00;;;;;;;50.67;24.88;;;;;;;-0.91;69.01;102750.81;5073211;28;20050;-78
2022/03/20 05:40:29;;;;;;;52.20;24.33;;;;;;;-0.90;69.57;102752.63;5073142;28;20483;-77
2022/03/20 05:42:56;;;;;;;49.88;23.92;;;;;;;-0.84;69.37;102757.28;5073141;28;20127;-78
2022/03/20 05:45:24;;;;;;;42.58;21.77;;;;;;;-0.80;68.89;102764.50;5073060;28;20055;-77
2022/03/20 05:47:52;;;;;;;47.05;21.45;;;;;;;-0.81;69.22;102765.34;5073289;28;20044;-78
2022/03/20 05:50:19;;;;;;;46.80;22.90;;;;;;;-0.69;69.10;102765.81;5072926;28;20049;-78
2022/03/20 05:52:47;;;;;;;48.42;23.83;;;;;;;-0.79;69.73;102774.28;5072934;28;20491;-78
2022/03/20 05:55:15;;;;;;;49.25;24.33;;;;;;;-0.79;69.97;102761.94;5073285;28;20127;-78
2022/03/20 06:00:30;;;;;;;53.72;25.77;;;;;;;-0.69;69.46;102768.47;5070893;28;20045;-79
2022/03/20 06:02:57;;;;;;;56.30;26.15;;;;;;;-0.44;70.01;102761.41;5069580;28;20075;-78
2022/03/20 06:05:25;;;;;;;54.78;25.80;;;;;;;-0.36;69.38;102767.88;5068745;28;20043;-78
2022/03/20 06:07:53;;;;;;;52.10;25.88;;;;;;;-0.19;68.94;102764.94;5069481;28;20051;-77
2022/03/20 06:10:22;;;;;;;64.28;28.40;;;;;;;-0.18;68.75;102761.44;5069607;28;20131;-78
2022/03/20 06:12:51;;;;;;;63.13;28.67;;;;;;;-0.09;68.22;102761.75;5069407;28;20058;-78
2022/03/20 06:15:19;;;;;;;72.50;33.97;;;;;;;0.18;66.96;102763.50;5069224;28;20480;-78
2022/03/20 06:17:47;;;;;;;54.30;25.75;;;;;;;0.51;63.59;102756.63;5079972;28;20056;-78
2022/03/20 06:20:15;;;;;;;40.38;19.80;;;;;;;0.72;59.74;102759.94;5068938;28;20056;-78
2022/03/20 06:22:44;;;;;;;55.53;25.48;;;;;;;0.89;60.67;102763.97;5069924;28;20132;-77
2022/03/20 06:25:15;;;;;;;66.20;29.55;;;;;;;1.00;60.80;102758.13;5072886;28;20040;-76
2022/03/20 06:27:44;;;;;;;72.60;34.05;;;;;;;1.05;60.65;102763.59;5074316;28;20552;-76
2022/03/20 06:30:14;;;;;;;59.53;29.60;;;;;;;0.98;60.49;102765.16;5074139;28;20137;-78
2022/03/20 06:32:42;;;;;;;47.28;24.58;;;;;;;1.08;60.91;102758.38;5076123;28;20040;-77
2022/03/20 06:35:11;;;;;;;42.95;21.23;;;;;;;1.26;60.17;102762.41;5076666;28;20044;-79
2022/03/20 06:37:39;;;;;;;40.03;20.75;;;;;;;1.27;59.87;102754.47;5076325;28;20143;-78
2022/03/20 06:40:08;;;;;;;42.67;19.33;;;;;;;1.47;59.79;102753.25;5076300;28;20170;-78
2022/03/20 06:42:37;;;;;;;37.30;18.25;;;;;;;1.32;60.62;102761.69;5076450;28;20051;-77
2022/03/20 06:45:08;;;;;;;34.67;16.65;;;;;;;1.23;61.60;102762.31;5076525;28;20049;-79
2022/03/20 06:47:37;;;;;;;38.58;16.83;;;;;;;1.20;62.67;102756.91;5076061;28;20123;-79
2022/03/20 06:50:06;;;;;;;32.70;16.95;;;;;;;1.35;61.72;102761.78;5076079;28;20055;-78
2022/03/20 06:52:34;;;;;;;33.95;18.45;;;;;;;1.47;61.50;102758.56;5076260;28;20455;-78
2022/03/20 06:55:02;;;;;;;33.15;17.30;;;;;;;1.60;61.04;102763.38;5076330;28;20048;-78
2022/03/20 06:57:31;;;;;;;38.10;16.98;;;;;;;1.69;61.16;102757.41;5075891;28;20080;-79
2022/03/20 06:59:59;;;;;;;36.00;18.15;;;;;;;1.78;60.53;102754.06;5076084;28;20048;-77
2022/03/20 07:02:27;;;;;;;35.10;16.77;;;;;;;1.87;61.06;102759.66;5075838;28;20101;-78
2022/03/20 07:04:56;;;;;;;30.25;16.02;;;;;;;2.01;60.40;102758.25;5076003;28;20048;-79
2022/03/20 07:07:24;;;;;;;29.30;14.75;;;;;;;2.25;59.91;102759.75;5075924;28;20041;-79
2022/03/20 07:09:52;;;;;;;31.23;16.95;;;;;;;2.39;58.57;102761.84;5076058;28;20094;-78
2022/03/20 07:12:20;;;;;;;29.05;16.00;;;;;;;2.59;58.37;102771.22;5076028;28;20048;-77
2022/03/20 07:14:49;;;;;;;31.77;16.08;;;;;;;2.68;58.85;102767.84;5075805;28;20045;-79
2022/03/20 07:17:19;;;;;;;28.02;15.27;;;;;;;2.76;58.56;102765.38;5086239;28;20131;-79
2022/03/20 07:19:46;;;;;;;31.55;15.45;;;;;;;2.87;58.23;102766.50;5075726;28;20067;-78
2022/03/20 07:22:16;;;;;;;24.30;12.40;;;;;;;2.99;57.53;102767.66;5075633;28;20524;-78
2022/03/20 07:24:44;;;;;;;23.90;10.57;;;;;;;3.37;55.82;102764.88;5075555;28;20131;-80
2022/03/20 07:29:57;;;;;;;27.10;18.17;;;;;;;3.86;49.47;102759.59;5076634;28;20040;-78
2022/03/20 07:32:26;;;;;;;24.45;14.00;;;;;;;4.05;47.41;102762.59;5075027;28;20044;-79
2022/03/20 07:34:53;;;;;;;30.88;17.05;;;;;;;4.15;46.63;102759.22;5075455;28;20051;-78
2022/03/20 07:37:22;;;;;;;22.38;11.80;;;;;;;4.31;46.59;102765.72;5075614;28;20048;-79
2022/03/20 07:39:51;;;;;;;20.17;10.50;;;;;;;4.38;47.37;102756.00;5075300;28;20053;-78
2022/03/20 07:42:20;;;;;;;37.10;22.33;;;;;;;4.50;46.04;102760.66;5074131;28;20055;-79
2022/03/20 07:44:48;;;;;;;31.52;16.65;;;;;;;4.61;46.09;102767.06;5075203;28;20101;-79
2022/03/20 07:47:19;;;;;;;24.67;11.95;;;;;;;4.70;44.81;102758.28;5074868;28;20040;-78
2022/03/20 07:49:47;;;;;;;26.23;13.75;;;;;;;4.78;44.61;102750.38;5075268;28;20116;-79
2022/03/20 07:52:15;;;;;;;21.00;10.25;;;;;;;4.75;44.88;102750.31;5075305;28;20048;-78
2022/03/20 07:54:45;;;;;;;24.67;13.32;;;;;;;5.01;45.75;102758.72;5075110;28;20475;-77
2022/03/20 07:57:13;;;;;;;43.42;24.92;;;;;;;5.10;45.26;102757.94;5076643;28;20447;-79
2022/03/20 07:59:42;;;;;;;30.15;14.25;;;;;;;4.90;45.89;102763.91;5074613;28;20528;-80
2022/03/20 08:02:09;;;;;;;26.40;11.75;;;;;;;5.14;47.22;102759.78;5074134;28;20411;-79
2022/03/20 08:04:37;;;;;;;21.63;11.25;;;;;;;5.27;46.97;102770.66;5071630;28;20052;-81
2022/03/20 08:07:05;;;;;;;21.55;10.10;;;;;;;5.41;47.00;102763.66;5071552;28;20140;-82
2022/03/20 08:09:33;;;;;;;22.95;10.73;;;;;;;5.52;46.82;102769.16;5071417;28;20056;-79
2022/03/20 08:12:02;;;;;;;32.95;15.63;;;;;;;5.69;45.95;102772.03;5071423;28;20492;-79
2022/03/20 08:14:30;;;;;;;28.02;13.95;;;;;;;5.72;44.95;102766.69;5070983;28;20097;-77
2022/03/20 08:16:57;;;;;;;22.73;11.70;;;;;;;5.78;45.26;102758.72;5081947;28;20056;-79
2022/03/20 08:19:25;;;;;;;27.20;13.82;;;;;;;5.90;44.45;102768.69;5050966;28;20049;-79
2022/03/20 08:21:53;;;;;;;27.70;13.48;;;;;;;6.01;43.25;102768.81;5051192;28;20075;-77
2022/03/20 08:24:21;;;;;;;24.13;12.98;;;;;;;6.05;43.52;102765.28;5051240;28;20056;-79
2022/03/20 08:26:48;;;;;;;23.67;12.43;;;;;;;6.15;41.98;102768.03;5051332;28;20063;-78
2022/03/20 08:29:18;;;;;;;22.40;10.93;;;;;;;6.22;38.87;102765.44;5050934;28;20041;-79
2022/03/20 08:31:47;;;;;;;23.40;12.80;;;;;;;6.33;38.57;102770.91;5051009;28;20079;-78
2022/03/20 08:34:15;;;;;;;28.08;14.85;;;;;;;6.40;38.23;102768.25;5051095;28;20051;-79
2022/03/20 08:36:44;;;;;;;20.45;10.63;;;;;;;6.51;38.02;102778.16;5050969;28;20049;-80
2022/03/20 08:39:12;;;;;;;20.52;10.45;;;;;;;6.49;38.26;102766.50;5064948;28;20050;-79
2022/03/20 08:41:39;;;;;;;19.17;10.43;;;;;;;6.32;37.22;102769.09;5054790;28;20087;-78
2022/03/20 08:44:08;;;;;;;22.15;10.57;;;;;;;6.50;36.44;102767.44;5049962;28;20049;-78
2022/03/20 08:46:37;;;;;;;21.63;11.20;;;;;;;6.58;36.04;102770.19;5050882;28;20055;-80
2022/03/20 08:49:08;;;;;;;22.33;11.07;;;;;;;6.75;36.98;102765.81;5050749;28;20518;-78
2022/03/20 08:51:38;;;;;;;20.70;10.68;;;;;;;6.76;37.17;102772.97;5050878;28;20045;-78
2022/03/20 08:54:05;;;;;;;24.00;11.20;;;;;;;6.86;37.42;102763.19;5050169;28;20067;-78
2022/03/20 08:56:33;;;;;;;34.97;19.13;;;;;;;7.02;38.43;102760.56;5050378;28;20555;-79
2022/03/20 08:59:01;;;;;;;73.43;38.72;;;;;;;7.09;37.98;102762.41;5050180;28;20048;-79
2022/03/20 09:01:29;;;;;;;30.83;16.15;;;;;;;7.15;37.39;102753.47;5066938;28;20464;-79
2022/03/20 09:03:58;;;;;;;21.30;11.05;;;;;;;7.22;37.04;102752.59;5068296;28;20494;-78
2022/03/20 09:06:25;;;;;;;18.10;10.20;;;;;;;6.81;34.18;102749.72;5070397;28;20159;-79
2022/03/20 09:08:54;;;;;;;26.50;13.30;;;;;;;6.82;36.45;102756.00;5070073;28;20066;-78
2022/03/20 09:11:22;;;;;;;19.27;10.38;;;;;;;7.16;36.11;102745.44;5070271;28;20060;-79
2022/03/20 09:13:50;;;;;;;17.88;10.63;;;;;;;7.31;36.46;102743.69;5070036;28;20051;-78
2022/03/20 09:19:07;;;;;;;17.10;9.10;;;;;;;7.57;35.77;102741.06;5070325;28;20051;-78
2022/03/20 09:21:36;;;;;;;22.20;10.73;;;;;;;7.67;34.63;102742.00;5070456;28;20192;-79
2022/03/20 09:24:05;;;;;;;23.75;13.30;;;;;;;7.74;34.58;102749.19;5070164;28;20049;-76
2022/03/20 09:26:33;;;;;;;23.00;10.18;;;;;;;7.84;34.42;102739.34;5071493;28;20051;-78
2022/03/20 09:29:01;;;;;;;19.65;9.88;;;;;;;7.87;34.67;102743.81;5073819;28;20052;-79
2022/03/20 09:31:31;;;;;;;19.52;10.15;;;;;;;7.92;33.98;102742.00;5073661;28;20060;-78
2022/03/20 09:33:59;;;;;;;19.65;10.05;;;;;;;7.96;33.64;102731.25;5074675;28;20044;-79
2022/03/20 09:36:28;;;;;;;21.13;10.80;;;;;;;8.03;33.70;102742.94;5072428;28;20123;-81
2022/03/20 09:38:56;;;;;;;19.88;11.07;;;;;;;8.09;34.53;102736.63;5072504;28;20045;-80
2022/03/20 09:41:28;;;;;;;19.60;10.20;;;;;;;8.04;34.92;102725.91;5071998;28;20049;-79
2022/03/20 09:43:56;;;;;;;18.58;10.73;;;;;;;8.13;34.61;102722.28;5076311;28;20050;-79
2022/03/20 09:46:25;;;;;;;20.20;10.48;;;;;;;7.97;34.49;102722.28;5073049;28;20123;-77
2022/03/20 09:48:53;;;;;;;37.38;18.27;;;;;;;8.27;34.83;102722.28;5073615;28;20037;-78
2022/03/20 09:51:21;;;;;;;84.70;37.95;;;;;;;8.34;33.98;102729.44;5073405;28;20040;-80
2022/03/20 09:53:50;;;;;;;35.78;15.40;;;;;;;8.45;33.65;102725.88;5073309;28;20063;-78
2022/03/20 09:56:18;;;;;;;52.33;23.40;;;;;;;8.32;32.97;102724.97;5071793;28;20110;-78
2022/03/20 09:58:46;;;;;;;49.63;25.70;;;;;;;8.44;33.53;102716.88;5067053;28;20044;-79
2022/03/20 10:01:13;;;;;;;20.45;10.57;;;;;;;8.22;33.07;102713.31;5072461;28;20559;-79
2022/03/20 10:03:41;;;;;;;18.65;10.10;;;;;;;8.11;31.89;102719.59;5072099;28;20045;-77
2022/03/20 10:06:15;;;;;;;19.65;10.40;;;;;;;8.34;32.10;102718.69;5071516;28;20071;-77
2022/03/20 10:09:16;;;;;;;18.10;9.45;;;;;;;8.39;33.09;102714.22;5075077;28;20077;-77
2022/03/20 10:11:51;;;;;;;19.98;9.82;;;;;;;8.60;32.21;102709.69;5072715;28;20403;-78
2022/03/20 10:14:21;;;;;;;20.25;10.38;;;;;;;8.69;33.00;102709.66;5072026;28;20052;-78
2022/03/20 10:16:50;;;;;;;22.23;11.27;;;;;;;8.72;33.24;102706.09;5069419;28;20052;-80
2022/03/20 10:19:30;;;;;;;21.77;11.32;;;;;;;8.77;33.69;102706.03;5072529;28;20040;-80
2022/03/20 10:22:00;;;;;;;19.08;10.32;;;;;;;8.96;33.33;102702.41;5072482;28;20569;-81
2022/03/20 10:24:29;;;;;;;18.90;9.70;;;;;;;8.98;33.00;102699.72;5071742;28;20128;-78
2022/03/20 10:27:15;;;;;;;18.05;9.90;;;;;;;8.59;33.72;102693.56;5072650;28;20068;-79
2022/03/20 10:29:51;;;;;;;18.48;10.32;;;;;;;8.94;33.89;102704.22;5072878;28;20514;-81
2022/03/20 10:32:19;;;;;;;19.92;10.18;;;;;;;9.07;33.52;102699.66;5069044;28;20131;-79
2022/03/20 10:34:51;;;;;;;20.02;10.23;;;;;;;9.12;32.92;102691.53;5071218;28;20052;-76
2022/03/20 10:37:20;;;;;;;22.67;11.90;;;;;;;9.22;33.03;102692.41;5069042;28;20566;-80
2022/03/20 10:39:48;;;;;;;19.10;10.18;;;;;;;9.40;33.04;102697.69;5070797;28;20053;-80
2022/03/20 10:42:18;;;;;;;18.38;9.57;;;;;;;9.45;32.93;102699.47;5070677;28;20090;-80
2022/03/20 10:44:46;;;;;;;23.70;11.68;;;;;;;9.15;32.02;102696.03;5071097;28;20075;-78
2022/03/20 10:47:16;;;;;;;18.27;9.82;;;;;;;9.42;32.62;102690.50;5070861;28;20044;-80
2022/03/20 10:49:47;;;;;;;18.73;9.93;;;;;;;9.28;32.54;102690.56;5074225;28;20496;-80
2022/03/20 10:52:20;;;;;;;18.67;9.85;;;;;;;9.48;32.54;102689.53;5072483;28;20055;-81
2022/03/20 10:54:51;;;;;;;19.10;10.15;;;;;;;9.41;31.67;102686.00;5069795;28;20119;-80
2022/03/20 10:57:21;;;;;;;24.33;11.25;;;;;;;8.46;31.54;102676.47;5069981;28;20052;-78
2022/03/20 10:59:58;;;;;;;29.05;14.02;;;;;;;9.16;32.54;102671.75;5070594;28;20071;-79
2022/03/20 11:02:27;;;;;;;22.20;11.30;;;;;;;9.49;32.81;102683.25;5069109;28;20048;-79
2022/03/20 11:04:55;;;;;;;23.73;10.23;;;;;;;9.67;33.70;102673.25;5069036;28;20506;-79
2022/03/20 11:07:26;;;;;;;21.48;10.77;;;;;;;9.80;34.01;102663.25;5068167;28;20053;-80
2022/03/20 11:09:55;;;;;;;19.67;10.00;;;;;;;9.88;32.86;102676.66;5068747;28;20546;-79
2022/03/20 11:12:28;;;;;;;20.10;11.18;;;;;;;9.83;32.88;102668.63;5067574;28;20102;-79
2022/03/20 11:14:59;;;;;;;19.08;9.95;;;;;;;9.57;33.92;102658.91;5066757;28;20082;-80
2022/03/20 11:17:29;;;;;;;85.15;36.15;;;;;;;9.72;34.38;102666.00;5071652;28;20057;-78
2022/03/20 11:19:58;;;;;;;58.33;27.00;;;;;;;9.56;34.87;102657.13;5070895;28;20437;-78
2022/03/20 11:22:27;;;;;;;41.58;20.70;;;;;;;9.65;35.05;102653.47;5070864;28;20410;-78
2022/03/20 11:24:56;;;;;;;28.05;14.55;;;;;;;9.61;35.05;102655.28;5072111;28;20068;-80
2022/03/20 11:27:28;;;;;;;27.50;14.43;;;;;;;9.91;34.84;102653.25;5071203;28;20045;-78
2022/03/20 11:29:59;;;;;;;17.50;9.68;;;;;;;9.85;34.26;102653.31;5072967;28;20119;-79
2022/03/20 11:32:27;;;;;;;20.33;10.75;;;;;;;9.75;33.75;102644.38;5070874;28;20046;-79
2022/03/20 11:34:55;;;;;;;53.80;21.15;;;;;;;9.85;34.28;102651.47;5070660;28;20494;-78
2022/03/20 11:37:23;;;;;;;63.70;31.60;;;;;;;9.94;34.29;102639.72;5071160;28;20045;-78
2022/03/20 11:40:14;;;;;;;21.20;11.48;;;;;;;9.86;33.82;102637.06;5071814;28;20060;-78
2022/03/20 11:42:43;;;;;;;21.17;10.55;;;;;;;10.06;33.87;102633.31;5068051;28;20080;-78
2022/03/20 11:45:18;;;;;;;24.25;11.88;;;;;;;10.00;33.87;102641.47;5071825;28;20085;-78
2022/03/20 11:47:48;;;;;;;31.27;14.63;;;;;;;10.07;33.73;102629.69;5071397;28;20059;-78
2022/03/20 11:50:21;;;;;;;29.17;13.82;;;;;;;10.23;34.12;102626.84;5071557;28;20060;-78
2022/03/20 11:52:55;;;;;;;20.80;10.82;;;;;;;10.39;33.48;102620.34;5053382;28;20064;-78